createdAt,value
2019-04-04T00:02:05.705Z,25.6
2019-04-04T00:05:11.770Z,25.5
2019-04-04T00:08:17.836Z,25.3
2019-04-04T00:11:23.795Z,25.5
2019-04-04T00:14:29.857Z,25.6
2019-04-04T00:17:35.917Z,25.5
2019-04-04T00:20:41.875Z,25.6
2019-04-04T00:23:47.936Z,25.6
2019-04-04T00:26:53.900Z,25.6
2019-04-04T00:29:59.998Z,25.6
2019-04-04T00:33:06.028Z,25.6
2019-04-04T00:36:11.978Z,25.6
2019-04-04T00:39:18.043Z,25.5
2019-04-04T00:42:23.900Z,25.6
2019-04-04T00:45:30.163Z,25.6
2019-04-04T00:48:36.125Z,25.6
2019-04-04T00:51:42.083Z,25.6
2019-04-04T00:54:48.145Z,25.5
2019-04-04T00:57:54.019Z,25.5
2019-04-04T01:01:00.063Z,25.5
2019-04-04T01:04:06.119Z,25.5
2019-04-04T01:07:11.988Z,25.5
2019-04-04T01:10:20.096Z,25.6
2019-04-04T01:13:28.197Z,25.5
2019-04-04T01:16:34.769Z,25.5
2019-04-04T01:19:40.766Z,25.5
2019-04-04T01:22:49.998Z,25.5
2019-04-04T01:26:01.275Z,25.6
2019-04-04T01:29:11.605Z,25.6
2019-04-04T01:32:18.183Z,25.6
2019-04-04T01:35:24.247Z,25.6
2019-04-04T01:38:30.514Z,25.5
2019-04-04T01:41:39.138Z,25.5
2019-04-04T01:44:45.199Z,25.6
2019-04-04T01:47:51.254Z,25.6
2019-04-04T01:50:57.130Z,25.6
2019-04-04T01:54:03.078Z,25.6
2019-04-04T01:57:09.440Z,25.6
2019-04-04T02:00:16.431Z,25.6
2019-04-04T02:03:23.925Z,25.6
2019-04-04T02:06:29.906Z,25.6
2019-04-04T02:09:35.846Z,25.6
2019-04-04T02:12:44.618Z,25.6
2019-04-04T02:15:50.533Z,25.7
2019-04-04T02:18:56.594Z,25.7
2019-04-04T02:22:02.470Z,25.7
2019-04-04T02:25:08.505Z,25.8
2019-04-04T02:28:14.382Z,25.7
2019-04-04T02:31:22.271Z,25.8
2019-04-04T02:34:28.148Z,25.8
2019-04-04T02:37:34.089Z,25.8
2019-04-04T02:40:42.710Z,25.9
2019-04-04T02:43:48.770Z,25.9
2019-04-04T02:46:54.748Z,25.9
2019-04-04T02:50:02.226Z,25.9
2019-04-04T02:53:08.291Z,25.9
2019-04-04T02:56:20.818Z,26
2019-04-04T02:59:26.678Z,25.9
2019-04-04T03:02:34.408Z,25.9
2019-04-04T03:05:42.475Z,26
2019-04-04T03:08:54.884Z,25.9
2019-04-04T03:12:00.924Z,25.8
2019-04-04T03:15:10.237Z,25.7
2019-04-04T03:18:16.352Z,25.7
2019-04-04T03:21:24.075Z,25.7
2019-04-04T03:24:30.213Z,25.6
2019-04-04T03:27:45.728Z,25.6
2019-04-04T03:31:03.479Z,25.5
2019-04-04T03:34:13.233Z,25.6
2019-04-04T03:37:19.468Z,25.5
2019-04-04T03:40:26.542Z,25.5
2019-04-04T03:43:32.494Z,25.5
2019-04-04T03:46:39.678Z,25.5
2019-04-04T03:49:45.744Z,25.5
2019-04-04T03:52:51.814Z,25.5
2019-04-04T03:56:01.455Z,25.5
2019-04-04T03:59:07.614Z,25.5
2019-04-04T04:02:17.672Z,25.6
2019-04-04T04:05:24.261Z,25.5
2019-04-04T04:08:37.996Z,25.6
2019-04-04T04:11:44.153Z,25.5
2019-04-04T04:14:55.150Z,25.5
2019-04-04T04:18:01.268Z,25.3
2019-04-04T04:21:11.249Z,25.3
2019-04-04T04:24:17.311Z,25.4
2019-04-04T04:27:23.271Z,25.5
2019-04-04T04:30:29.227Z,25.3
2019-04-04T04:33:35.296Z,25.5
2019-04-04T04:36:41.184Z,25.4
2019-04-04T04:39:51.717Z,25.4
2019-04-04T04:43:00.987Z,25.4
2019-04-04T04:46:07.116Z,25.3
2019-04-04T04:49:13.284Z,25.3
2019-04-04T04:52:19.344Z,25.3
2019-04-04T04:55:28.237Z,25.3
2019-04-04T04:58:34.231Z,25.3
2019-04-04T05:01:44.097Z,25.3
2019-04-04T05:04:54.315Z,25.4
2019-04-04T05:08:04.296Z,25.5
2019-04-04T05:11:19.762Z,25.4
2019-04-04T05:14:25.863Z,25.3
2019-04-04T05:17:35.196Z,25.4
2019-04-04T05:20:44.340Z,25.4
2019-04-04T05:23:50.288Z,25.5
2019-04-04T05:26:56.295Z,25.5
2019-04-04T05:30:02.298Z,25.4
2019-04-04T05:33:11.846Z,25.4
2019-04-04T05:36:17.730Z,25.4
2019-04-04T05:39:23.872Z,25.5
2019-04-04T05:42:33.644Z,25.5
2019-04-04T05:45:39.880Z,25.5
2019-04-04T05:48:49.465Z,25.5
2019-04-04T05:51:55.605Z,25.7
2019-04-04T05:55:01.675Z,25.7
2019-04-04T05:58:11.254Z,25.8
2019-04-04T06:01:17.476Z,25.6
2019-04-04T06:04:23.628Z,25.5
2019-04-04T06:07:29.765Z,25.6
2019-04-04T06:10:39.949Z,25.6
2019-04-04T06:13:45.963Z,25.7
2019-04-04T06:16:51.869Z,25.8
2019-04-04T06:19:57.827Z,25.7
2019-04-04T06:23:03.797Z,25.8
2019-04-04T06:26:09.848Z,25.7
2019-04-04T06:29:18.045Z,25.7
2019-04-04T06:32:24.015Z,25.8
2019-04-04T06:35:33.414Z,25.9
2019-04-04T06:38:44.871Z,25.8
2019-04-04T06:41:57.699Z,25.8
2019-04-04T06:45:07.658Z,25.9
2019-04-04T06:48:17.589Z,25.8
2019-04-04T06:51:23.487Z,25.8
2019-04-04T06:54:29.459Z,25.9
2019-04-04T06:57:37.916Z,25.9
2019-04-04T07:00:43.877Z,25.8
2019-04-04T07:03:59.041Z,25.8
2019-04-04T07:07:05.729Z,25.9
2019-04-04T07:10:15.079Z,26
2019-04-04T07:13:41.350Z,25.8
2019-04-04T07:16:48.522Z,25.8
2019-04-04T07:19:55.486Z,25.8
2019-04-04T07:23:01.472Z,25.7
2019-04-04T07:26:09.213Z,25.8
2019-04-04T07:29:20.249Z,25.7
2019-04-04T07:32:30.293Z,25.8
2019-04-04T07:35:38.197Z,25.8
2019-04-04T07:38:44.257Z,25.7
2019-04-04T07:41:50.121Z,25.8
2019-04-04T07:44:56.279Z,25.7
2019-04-04T07:48:05.105Z,25.6
2019-04-04T07:51:14.051Z,25.5
2019-04-04T07:54:20.109Z,25.4
2019-04-04T07:57:26.120Z,25.5
2019-04-04T08:00:34.779Z,25.8
2019-04-04T08:03:40.858Z,25.6
2019-04-04T08:06:46.851Z,25.8
2019-04-04T08:09:52.779Z,25.6
2019-04-04T08:12:58.891Z,25.5
2019-04-04T08:16:04.886Z,25.5
2019-04-04T08:19:11.045Z,25.7
2019-04-04T08:22:20.068Z,25.6
2019-04-04T08:25:26.769Z,25.7
2019-04-04T08:28:32.768Z,25.6
2019-04-04T08:31:38.774Z,25.5
2019-04-04T08:34:44.741Z,25.5
2019-04-04T08:41:14.192Z,25.6
2019-04-04T08:44:20.230Z,25.4
2019-04-04T08:47:26.299Z,25.4
2019-04-04T08:50:32.294Z,25.5
2019-04-04T08:53:40.974Z,25.5
2019-04-04T08:56:47.109Z,25.4
2019-04-04T08:59:53.099Z,25.4
2019-04-04T09:02:59.059Z,25.4
2019-04-04T09:06:04.939Z,25.4
2019-04-04T09:09:10.882Z,25.5
2019-04-04T09:12:16.778Z,25.4
2019-04-04T09:15:22.796Z,25.4
2019-04-04T09:18:29.630Z,25.3
2019-04-04T09:21:35.635Z,25.4
2019-04-04T09:24:44.566Z,25.3
2019-04-04T09:27:50.442Z,25.2
2019-04-04T09:30:56.487Z,25.2
2019-04-04T09:34:02.358Z,25.3
2019-04-04T09:37:11.172Z,25.3
2019-04-04T09:40:18.264Z,25.3
2019-04-04T09:43:24.140Z,25.4
2019-04-04T09:46:30.175Z,25.4
2019-04-04T09:49:43.313Z,25.4
2019-04-04T09:52:49.272Z,25.4
2019-04-04T09:55:55.441Z,25.5
2019-04-04T09:59:01.694Z,25.3
2019-04-04T10:02:07.756Z,25.2
2019-04-04T10:05:14.049Z,25.3
2019-04-04T10:08:20.187Z,25.4
2019-04-04T10:11:26.566Z,25.3
2019-04-04T10:14:32.508Z,25.4
2019-04-04T10:17:38.481Z,25.3
2019-04-04T10:20:44.448Z,25.4
2019-04-04T10:23:50.499Z,25.5
2019-04-04T10:26:56.371Z,25.4
2019-04-04T10:30:05.797Z,25.5
2019-04-04T10:33:11.861Z,25.4
2019-04-04T10:36:17.734Z,25.4
2019-04-04T10:39:32.678Z,25.4
2019-04-04T10:42:38.855Z,25.6
2019-04-04T10:45:44.852Z,25.6
2019-04-04T10:48:50.887Z,25.7
2019-04-04T10:51:57.757Z,25.7
2019-04-04T10:55:03.927Z,25.7
2019-04-04T10:58:09.879Z,25.8
2019-04-04T11:01:15.947Z,25.9
2019-04-04T11:04:21.912Z,26
2019-04-04T11:07:27.967Z,26
2019-04-04T11:10:33.852Z,25.8
2019-04-04T11:13:39.785Z,25.9
2019-04-04T11:16:45.846Z,26
2019-04-04T11:19:51.804Z,25.9
2019-04-04T11:22:57.867Z,26.3
2019-04-04T11:26:04.865Z,26
2019-04-04T11:29:10.920Z,26.1
2019-04-04T11:32:16.891Z,26.3
2019-04-04T11:35:22.835Z,26.1
2019-04-04T11:38:28.790Z,26.4
2019-04-04T11:41:34.732Z,26.2
2019-04-04T11:44:40.732Z,26.3
2019-04-04T11:47:49.438Z,26.3
2019-04-04T11:50:55.315Z,26.3
2019-04-04T11:54:01.256Z,26.3
2019-04-04T11:57:07.246Z,26.2
2019-04-04T12:00:13.174Z,26.4
2019-04-04T12:03:19.135Z,26.5
2019-04-04T12:06:25.194Z,26.4
2019-04-04T12:09:31.156Z,26.4
2019-04-04T12:12:37.044Z,26.5
2019-04-04T12:15:43.075Z,26.4
2019-04-04T12:18:49.147Z,26.2
2019-04-04T12:21:55.320Z,26.4
2019-04-04T12:25:01.284Z,26.3
2019-04-04T12:28:07.288Z,26.2
2019-04-04T12:31:13.387Z,26.4
2019-04-04T12:34:19.365Z,26.3
2019-04-04T12:37:25.437Z,26.3
2019-04-04T12:40:31.301Z,26.2
2019-04-04T12:43:37.226Z,26.1
2019-04-04T12:46:43.290Z,26.2
2019-04-04T12:49:49.760Z,26.2
2019-04-04T12:52:56.702Z,26.1
2019-04-04T12:56:03.038Z,26.2
2019-04-04T12:59:09.177Z,26.1
2019-04-04T13:02:15.287Z,26.1
2019-04-04T13:05:21.425Z,26.2
2019-04-04T13:08:30.309Z,26.2
2019-04-04T13:11:36.495Z,25.9
2019-04-04T13:14:42.462Z,26
2019-04-04T13:17:48.361Z,25.9
2019-04-04T13:20:54.395Z,25.9
2019-04-04T13:24:00.310Z,25.9
2019-04-04T13:27:06.397Z,26
2019-04-04T13:30:12.379Z,26
2019-04-04T13:33:18.430Z,25.8
2019-04-04T13:36:27.860Z,25.6
2019-04-04T13:39:33.863Z,25.8
2019-04-04T13:42:41.032Z,25.8
2019-04-04T13:45:47.283Z,25.8
2019-04-04T13:48:53.291Z,25.9
2019-04-04T13:51:59.299Z,25.6
2019-04-04T13:55:05.911Z,25.6
2019-04-04T13:58:13.071Z,25.8
2019-04-04T14:01:27.188Z,25.7
2019-04-04T14:04:33.455Z,25.7
2019-04-04T14:07:39.954Z,25.7
2019-04-04T14:10:58.668Z,25.7
2019-04-04T14:14:04.707Z,25.6
2019-04-04T14:17:10.787Z,25.5
2019-04-04T14:20:17.031Z,25.6
2019-04-04T14:23:23.111Z,25.6
2019-04-04T14:26:32.083Z,25.7
2019-04-04T14:29:38.316Z,25.7
2019-04-04T14:32:44.614Z,25.7
2019-04-04T14:35:51.075Z,25.5
2019-04-04T14:38:57.119Z,25.5
2019-04-04T14:42:04.102Z,25.5
2019-04-04T14:45:10.059Z,25.6
2019-04-04T14:48:16.025Z,25.8
2019-04-04T14:51:21.922Z,25.5
2019-04-04T14:54:30.395Z,25.5
2019-04-04T14:57:36.566Z,25.5
2019-04-04T15:00:42.491Z,25.5
2019-04-04T15:03:48.685Z,25.6
2019-04-04T15:06:54.644Z,25.5
2019-04-04T15:10:00.704Z,25.6
2019-04-04T15:13:06.670Z,25.5
2019-04-04T15:16:12.724Z,25.6
2019-04-04T15:19:18.688Z,25.6
2019-04-04T15:22:24.567Z,25.5
2019-04-04T15:25:33.775Z,25.6
2019-04-04T15:28:39.717Z,25.5
2019-04-04T15:31:45.697Z,25.4
2019-04-04T15:34:51.687Z,25.6
2019-04-04T15:37:57.557Z,25.5
2019-04-04T15:41:06.452Z,25.4
2019-04-04T15:44:12.333Z,25.4
2019-04-04T15:47:18.467Z,25.4
2019-04-04T15:50:24.427Z,25.4
2019-04-04T15:53:30.392Z,25.4
2019-04-04T15:56:36.260Z,25.4
2019-04-04T15:59:42.306Z,25.3
2019-04-04T16:02:48.367Z,25.2
2019-04-04T16:05:54.373Z,25.3
2019-04-04T16:09:00.390Z,25.3
2019-04-04T16:12:06.348Z,25.3
2019-04-04T16:15:12.260Z,25.2
2019-04-04T16:18:18.208Z,25.2
2019-04-04T16:21:24.226Z,25.4
2019-04-04T16:24:30.101Z,25.3
2019-04-04T16:27:36.049Z,25.4
2019-04-04T16:30:42.063Z,25.5
2019-04-04T16:33:47.991Z,25.6
2019-04-04T16:36:54.025Z,25.6
2019-04-04T16:40:09.909Z,25.9
2019-04-04T16:43:16.095Z,25.6
2019-04-04T16:46:21.961Z,25.5
2019-04-04T16:49:27.908Z,25.8
2019-04-04T16:52:33.866Z,25.7
2019-04-04T16:55:39.927Z,25.7
2019-04-04T16:58:45.987Z,25.6
2019-04-04T17:01:51.863Z,25.8
2019-04-04T17:04:57.905Z,25.7
2019-04-04T17:08:03.866Z,25.7
2019-04-04T17:11:09.743Z,25.6
2019-04-04T17:14:15.785Z,25.6
2019-04-04T17:17:24.650Z,25.6
2019-04-04T17:20:30.583Z,25.6
2019-04-04T17:23:36.634Z,25.6
2019-04-04T17:26:42.594Z,25.6
2019-04-04T17:29:48.731Z,25.7
2019-04-04T17:32:56.662Z,25.7
2019-04-04T17:36:05.878Z,25.7
2019-04-04T17:39:13.095Z,25.7
2019-04-04T17:42:32.798Z,25.8
2019-04-04T17:45:40.881Z,25.8
2019-04-04T17:48:48.427Z,25.9
2019-04-04T17:51:55.936Z,26
2019-04-04T17:55:03.266Z,26.1
2019-04-04T17:58:09.301Z,26.2
2019-04-04T18:01:18.260Z,26.3
2019-04-04T18:04:24.198Z,26.3
2019-04-04T18:07:30.180Z,26.4
2019-04-04T18:10:36.082Z,26.5
2019-04-04T18:13:42.099Z,26.6
2019-04-04T18:16:48.060Z,26.6
2019-04-04T18:19:54.022Z,26.7
2019-04-04T18:22:59.991Z,26.8
2019-04-04T18:26:05.949Z,26.7
2019-04-04T18:29:11.848Z,26.9
2019-04-04T18:32:17.865Z,26.9
2019-04-04T18:35:24.357Z,27
2019-04-04T18:38:32.110Z,27.1
2019-04-04T18:41:39.402Z,27.2
2019-04-04T18:44:45.395Z,27.3
2019-04-04T18:47:51.323Z,27.4
2019-04-04T18:51:00.281Z,27.3
2019-04-04T18:54:06.242Z,27.3
2019-04-04T18:57:13.937Z,27.4
2019-04-04T19:00:22.740Z,27.5
2019-04-04T19:03:30.361Z,27.5
2019-04-04T19:06:36.322Z,27.6
2019-04-04T19:09:42.387Z,27.6
2019-04-04T19:12:48.360Z,27.7
2019-04-04T19:16:07.721Z,27.8
2019-04-04T19:19:13.678Z,27.9
2019-04-04T19:22:19.638Z,27.8
2019-04-04T19:25:25.700Z,27.8
2019-04-04T19:28:31.670Z,27.9
2019-04-04T19:31:37.723Z,28
2019-04-04T19:34:44.399Z,28.1
2019-04-04T19:38:00.743Z,28.1
2019-04-04T19:41:06.625Z,28.1
2019-04-04T19:44:12.653Z,28.1
2019-04-04T19:47:18.688Z,28.2
2019-04-04T19:50:24.628Z,28.2
2019-04-04T19:53:30.603Z,28.3
2019-04-04T19:56:36.566Z,28.3
2019-04-04T19:59:42.530Z,28.3
2019-04-04T20:02:48.487Z,28.3
2019-04-04T20:05:54.430Z,28.4
2019-04-04T20:09:00.366Z,28.5
2019-04-04T20:12:06.407Z,28.5
2019-04-04T20:15:12.439Z,28.5
2019-04-04T20:18:18.317Z,28.5
2019-04-04T20:21:24.350Z,28.6
2019-04-04T20:24:30.307Z,28.7
2019-04-04T20:27:36.181Z,28.7
2019-04-04T20:30:55.343Z,28.6
2019-04-04T20:34:05.891Z,28.6
2019-04-04T20:37:12.153Z,28.6
2019-04-04T20:40:18.136Z,28.7
2019-04-04T20:43:27.263Z,28.7
2019-04-04T20:46:46.230Z,28.7
2019-04-04T20:49:52.111Z,28.8
2019-04-04T20:52:58.045Z,28.8
2019-04-04T20:56:04.008Z,28.8
2019-04-04T20:59:10.070Z,28.8
2019-04-04T21:02:19.016Z,28.8
2019-04-04T21:05:24.957Z,28.8
2019-04-04T21:08:30.834Z,28.9
2019-04-04T21:11:36.875Z,28.9
2019-04-04T21:14:42.837Z,28.9
2019-04-04T21:17:48.899Z,28.9
2019-04-04T21:20:55.041Z,28.9
2019-04-04T21:24:01.035Z,28.9
2019-04-04T21:27:06.992Z,29
2019-04-04T21:30:13.054Z,29
2019-04-04T21:33:19.109Z,29
2019-04-04T21:36:25.067Z,29
2019-04-04T21:39:31.031Z,29
2019-04-04T21:42:36.988Z,29
2019-04-04T21:45:42.874Z,29
2019-04-04T21:48:48.804Z,29.1
2019-04-04T21:51:54.868Z,29.1
2019-04-04T21:55:00.806Z,29
2019-04-04T21:58:06.791Z,29
2019-04-04T22:01:12.664Z,29.1
2019-04-04T22:04:18.604Z,29.1
2019-04-04T22:07:24.551Z,29.1
2019-04-04T22:10:30.647Z,29.2
2019-04-04T22:13:36.690Z,29.1
2019-04-04T22:16:42.752Z,29.2
2019-04-04T22:19:48.625Z,29.3
2019-04-04T22:22:54.588Z,29.3
2019-04-04T22:26:00.533Z,29.4
2019-04-04T22:29:06.603Z,29.4
2019-04-04T22:32:12.535Z,29.3
2019-04-04T22:35:18.520Z,29.4
2019-04-04T22:38:24.585Z,29.5
2019-04-04T22:41:33.506Z,29.5
2019-04-04T22:44:39.568Z,29.5
2019-04-04T22:47:45.447Z,29.5
2019-04-04T22:50:51.385Z,29.5
2019-04-04T22:54:00.112Z,29.6
2019-04-04T22:57:05.989Z,29.6
2019-04-04T23:00:11.938Z,29.5
2019-04-04T23:03:17.989Z,29.6
2019-04-04T23:06:23.953Z,29.6
2019-04-04T23:09:30.011Z,29.7
2019-04-04T23:12:35.885Z,29.6
2019-04-04T23:15:41.938Z,29.7
2019-04-04T23:18:48.005Z,29.7
2019-04-04T23:21:54.062Z,29.6
2019-04-04T23:25:00.122Z,29.7
2019-04-04T23:28:06.186Z,29.7
2019-04-04T23:31:12.147Z,29.7
2019-04-04T23:34:18.102Z,29.7
2019-04-04T23:37:24.065Z,29.7
2019-04-04T23:40:30.023Z,29.7
2019-04-04T23:43:35.892Z,29.8
2019-04-04T23:46:41.839Z,29.8
2019-04-04T23:49:47.803Z,29.8
2019-04-04T23:52:53.867Z,29.8
2019-04-04T23:55:59.924Z,29.8
2019-04-04T23:59:05.845Z,29.8
